Fairdale, ND (58229)

10:54 PM CDT on July 01, 2015 (GMT -0500)
Langdon | | Change Station
CLOSE
Current Station
Airport
Location: Langdon,
Elevation: 1608 ft
Nearby Weather Stations

Elev 1608 ft 48.75 °N, 98.39 °W | Updated -18 second ago

Clear
Clear
61 °F
Feels Like 61 °F
N
5
Wind Variable Wind from SSE

Today
High -- | Low -- °F
--% Chance of Precip.
Yesterday
High -- | Low -- °F
Precip. -- in
5:35 AM 9:37 PM
Full, 100% visible
Pressure 29.96 in
Visibility 9.0 miles
Clouds Clear
Dew Point 59 °F
Humidity 94%
Rainfall 0.00 in
Snow Depth Not available.
UV 0 out of 12
Pollen .60 out of 12
Air Quality Not available.
Flu Activity Not available.
METAR KD55 020355Z AUTO 16004KT 9SM CLR 16/15 A2996 RMK AO2

More Conditions Fewer Conditions

Pressure 29.96 in
Visibility 9.0 miles
Clouds Clear
Dew Point 59 °F
Humidity 94%
Rainfall 0.00 in
Snow Depth Not available.
UV 0 out of 12
Pollen .60 out of 12
Air Quality Not available.
Flu Activity Not available.
METAR KD55 020355Z AUTO 16004KT 9SM CLR 16/15 A2996 RMK AO2

More Conditions Fewer Conditions

10-Day Weather Forecast

×

Almanac

Astronomy

Jul. 01, 2015 Rise Set
Actual Time
Civil Twilight
Nautical Twilight
Astronomical Twilight
Moon
Length of Visible Light
Length of Day
Tomorrow will be .
, % of the Moon is Illuminated

Today's Extremes

State Highs State Lows

Community

WunderPhotos

Upload Photos

1,834,395 photos uploaded!

WunderBlogs® & News

Nearby

Air Quality

  Air Quality AQ Index Pollutant
Not available.

Snow Depth

Station Depth Elevation

Earthquake Activity

City Distance Mag. Time & Date
Minimum magnitude displayed is 2.5.

Coastal Water Temperatures

Place Temperature

Stations

Nearby Weather Stations

Station Location Temp. Windchill Dew Point Humidity Wind Precip. Elev Updated Type